createdAt,value
2019-03-12T00:00:46.173Z,4.83
2019-03-12T00:01:51.364Z,5.00
2019-03-12T00:02:57.096Z,5.12
2019-03-12T00:04:02.898Z,6.12
2019-03-12T00:05:08.047Z,8.00
2019-03-12T00:06:13.089Z,5.72
2019-03-12T00:07:18.840Z,5.25
2019-03-12T00:08:24.023Z,5.47
2019-03-12T00:09:29.584Z,5.58
2019-03-12T00:10:36.277Z,6.65
2019-03-12T00:11:42.925Z,5.50
2019-03-12T00:12:48.152Z,5.45
2019-03-12T00:13:53.532Z,4.65
2019-03-12T00:14:58.914Z,6.30
2019-03-12T00:16:04.113Z,6.75
2019-03-12T00:17:09.572Z,5.80
2019-03-12T00:18:14.739Z,5.85
2019-03-12T00:19:20.092Z,5.62
2019-03-12T00:20:25.095Z,6.30
2019-03-12T00:21:30.100Z,6.10
2019-03-12T00:22:35.317Z,5.58
2019-03-12T00:23:40.720Z,6.05
2019-03-12T00:24:46.682Z,5.97
2019-03-12T00:25:52.151Z,5.80
2019-03-12T00:26:57.801Z,5.28
2019-03-12T00:28:03.706Z,6.00
2019-03-12T00:29:08.869Z,6.67
2019-03-12T00:30:13.999Z,6.00
2019-03-12T00:31:19.124Z,6.67
2019-03-12T00:32:24.485Z,5.60
2019-03-12T00:33:29.580Z,5.92
2019-03-12T00:34:34.926Z,7.53
2019-03-12T00:35:40.003Z,6.40
2019-03-12T00:36:45.093Z,6.10
2019-03-12T00:37:50.222Z,6.75
2019-03-12T00:38:55.719Z,5.28
2019-03-12T00:40:01.230Z,6.00
2019-03-12T00:41:06.315Z,5.80
2019-03-12T00:42:11.638Z,6.05
2019-03-12T00:43:16.981Z,6.55
2019-03-12T00:44:22.144Z,5.45
2019-03-12T00:45:27.476Z,6.95
2019-03-12T00:46:32.790Z,6.90
2019-03-12T00:47:38.461Z,6.92
2019-03-12T00:48:43.965Z,7.33
2019-03-12T00:49:49.564Z,7.10
2019-03-12T00:50:55.133Z,7.60
2019-03-12T00:52:00.465Z,7.65
2019-03-12T00:53:05.643Z,7.12
2019-03-12T00:54:11.212Z,6.92
2019-03-12T00:55:16.544Z,7.58
2019-03-12T00:56:21.961Z,7.65
2019-03-12T00:57:27.331Z,7.62
2019-03-12T00:58:32.625Z,7.83
2019-03-12T00:59:37.864Z,7.50
2019-03-12T01:00:43.240Z,8.20
2019-03-12T01:01:48.453Z,6.95
2019-03-12T01:02:53.421Z,7.35
2019-03-12T01:03:58.413Z,6.78
2019-03-12T01:05:03.762Z,6.60
2019-03-12T01:06:09.937Z,7.05
2019-03-12T01:07:14.797Z,6.87
2019-03-12T01:08:20.471Z,7.60
2019-03-12T01:09:25.535Z,6.50
2019-03-12T01:10:31.363Z,6.72
2019-03-12T01:11:36.472Z,6.28
2019-03-12T01:12:41.527Z,7.28
2019-03-12T01:13:46.692Z,6.70
2019-03-12T01:14:51.721Z,6.97
2019-03-12T01:15:57.025Z,6.12
2019-03-12T01:17:02.222Z,6.33
2019-03-12T01:18:07.179Z,6.75
2019-03-12T01:19:12.475Z,6.15
2019-03-12T01:20:17.613Z,6.85
2019-03-12T01:21:22.655Z,6.35
2019-03-12T01:22:27.713Z,7.20
2019-03-12T01:23:33.045Z,6.28
2019-03-12T01:24:38.056Z,6.30
2019-03-12T01:25:43.485Z,5.08
2019-03-12T01:26:48.552Z,6.55
2019-03-12T01:27:53.953Z,6.20
2019-03-12T01:28:59.135Z,5.35
2019-03-12T01:30:04.881Z,5.60
2019-03-12T01:31:09.998Z,6.12
2019-03-12T01:32:15.102Z,6.05
2019-03-12T01:33:20.417Z,5.42
2019-03-12T01:34:25.534Z,5.50
2019-03-12T01:35:30.757Z,6.05
2019-03-12T01:36:35.778Z,5.87
2019-03-12T01:37:41.034Z,6.10
2019-03-12T01:38:46.065Z,5.45
2019-03-12T01:39:51.135Z,5.50
2019-03-12T01:40:56.407Z,7.12
2019-03-12T01:42:01.825Z,5.30
2019-03-12T01:43:06.777Z,6.05
2019-03-12T01:44:11.859Z,6.37
2019-03-12T01:45:17.135Z,5.28
2019-03-12T01:46:22.311Z,7.12
2019-03-12T01:47:27.366Z,5.75
2019-03-12T01:48:32.538Z,5.58
2019-03-12T01:49:37.652Z,5.33
2019-03-12T01:50:43.127Z,5.17
2019-03-12T01:51:48.315Z,7.17
2019-03-12T01:52:54.295Z,5.87
2019-03-12T01:53:59.681Z,4.95
2019-03-12T01:55:05.710Z,5.72
2019-03-12T01:56:10.730Z,4.83
2019-03-12T01:57:16.023Z,6.00
2019-03-12T01:58:21.190Z,6.00
2019-03-12T01:59:26.211Z,6.17
2019-03-12T02:00:31.495Z,5.60
2019-03-12T02:01:36.558Z,5.67
2019-03-12T02:02:41.571Z,4.75
2019-03-12T02:03:46.612Z,5.30
2019-03-12T02:04:51.984Z,5.65
2019-03-12T02:05:58.397Z,5.50
2019-03-12T02:07:04.590Z,4.87
2019-03-12T02:08:11.100Z,5.20
2019-03-12T02:09:16.264Z,5.60
2019-03-12T02:10:21.273Z,5.12
2019-03-12T02:11:26.588Z,5.15
2019-03-12T02:12:31.635Z,5.17
2019-03-12T02:13:36.817Z,5.45
2019-03-12T02:14:42.134Z,5.20
2019-03-12T02:15:47.276Z,5.55
2019-03-12T02:16:52.611Z,9.48
2019-03-12T02:17:58.062Z,9.28
2019-03-12T02:19:03.526Z,4.87
2019-03-12T02:20:11.465Z,6.12
2019-03-12T02:21:16.559Z,5.80
2019-03-12T02:22:21.829Z,5.40
2019-03-12T02:23:29.006Z,4.53
2019-03-12T02:24:34.029Z,5.80
2019-03-12T02:25:39.076Z,7.20
2019-03-12T02:26:44.201Z,4.97
2019-03-12T02:27:49.270Z,4.83
2019-03-12T02:28:54.557Z,5.15
2019-03-12T02:29:59.654Z,5.03
2019-03-12T02:31:07.838Z,4.97
2019-03-12T02:32:13.534Z,5.35
2019-03-12T02:33:18.697Z,5.60
2019-03-12T02:34:24.060Z,4.35
2019-03-12T02:35:29.601Z,5.05
2019-03-12T02:36:34.750Z,5.22
2019-03-12T02:37:40.157Z,5.30
2019-03-12T02:38:45.871Z,5.45
2019-03-12T02:39:50.998Z,5.78
2019-03-12T02:40:56.341Z,4.80
2019-03-12T02:42:01.346Z,6.45
2019-03-12T02:43:06.567Z,4.75
2019-03-12T02:44:11.911Z,4.80
2019-03-12T02:45:17.228Z,5.55
2019-03-12T02:46:22.276Z,5.53
2019-03-12T02:47:27.432Z,5.35
2019-03-12T02:48:32.626Z,4.40
2019-03-12T02:49:37.884Z,5.80
2019-03-12T02:50:43.335Z,5.70
2019-03-12T02:51:48.461Z,5.40
2019-03-12T02:52:53.682Z,4.67
2019-03-12T02:53:58.728Z,5.90
2019-03-12T02:55:03.876Z,5.22
2019-03-12T02:56:08.933Z,4.78
2019-03-12T02:57:14.288Z,4.37
2019-03-12T02:58:19.267Z,4.90
2019-03-12T02:59:24.623Z,5.42
2019-03-12T03:00:30.104Z,4.35
2019-03-12T03:01:35.655Z,4.67
2019-03-12T03:02:40.617Z,4.87
2019-03-12T03:03:45.582Z,4.20
2019-03-12T03:04:54.059Z,3.98
2019-03-12T03:06:20.867Z,5.65
2019-03-12T03:07:45.278Z,4.65
2019-03-12T03:08:50.332Z,5.12
2019-03-12T03:09:55.616Z,4.22
2019-03-12T03:11:01.642Z,4.28
2019-03-12T03:12:07.237Z,4.92
2019-03-12T03:13:12.399Z,5.25
2019-03-12T03:14:30.065Z,4.55
2019-03-12T03:15:41.619Z,4.35
2019-03-12T03:16:46.711Z,4.42
2019-03-12T03:17:51.912Z,5.10
2019-03-12T03:18:57.150Z,4.60
2019-03-12T03:20:02.301Z,5.55
2019-03-12T03:21:07.643Z,4.62
2019-03-12T03:22:12.712Z,4.53
2019-03-12T03:23:17.711Z,4.17
2019-03-12T03:24:22.922Z,4.42
2019-03-12T03:25:27.898Z,4.78
2019-03-12T03:26:33.011Z,4.72
2019-03-12T03:27:38.335Z,4.62
2019-03-12T03:28:43.431Z,4.83
2019-03-12T03:29:49.138Z,4.55
2019-03-12T03:30:54.437Z,4.00
2019-03-12T03:31:59.493Z,4.80
2019-03-12T03:33:04.798Z,5.17
2019-03-12T03:34:09.716Z,4.15
2019-03-12T03:35:14.925Z,4.80
2019-03-12T03:36:20.835Z,4.17
2019-03-12T03:37:26.159Z,4.65
2019-03-12T03:38:31.613Z,4.20
2019-03-12T03:39:36.607Z,3.80
2019-03-12T03:40:41.996Z,4.25
2019-03-12T03:41:47.079Z,4.20
2019-03-12T03:42:52.450Z,4.50
2019-03-12T03:43:58.031Z,4.97
2019-03-12T03:45:03.299Z,4.50
2019-03-12T03:46:08.337Z,4.78
2019-03-12T03:47:13.698Z,4.00
2019-03-12T03:48:18.954Z,4.08
2019-03-12T03:49:24.400Z,3.62
2019-03-12T03:50:30.125Z,4.00
2019-03-12T03:51:35.146Z,4.65
2019-03-12T03:52:40.428Z,3.92
2019-03-12T03:53:45.916Z,4.30
2019-03-12T03:54:51.376Z,4.62
2019-03-12T03:55:56.678Z,3.92
2019-03-12T03:57:04.239Z,4.85
2019-03-12T03:58:09.621Z,4.45
2019-03-12T03:59:14.840Z,4.80
2019-03-12T04:00:21.115Z,4.47
2019-03-12T04:01:26.619Z,4.35
2019-03-12T04:02:31.688Z,4.40
2019-03-12T04:03:36.898Z,4.58
2019-03-12T04:04:42.184Z,4.97
2019-03-12T04:05:47.937Z,4.20
2019-03-12T04:06:53.415Z,4.15
2019-03-12T04:07:58.811Z,4.10
2019-03-12T04:09:05.127Z,4.00
2019-03-12T04:10:10.398Z,4.37
2019-03-12T04:11:15.966Z,4.35
2019-03-12T04:12:21.157Z,4.40
2019-03-12T04:13:26.205Z,4.03
2019-03-12T04:14:31.416Z,4.87
2019-03-12T04:15:36.540Z,5.05
2019-03-12T04:16:41.679Z,4.65
2019-03-12T04:17:46.944Z,3.45
2019-03-12T04:18:52.326Z,4.55
2019-03-12T04:19:57.468Z,3.52
2019-03-12T04:21:02.891Z,4.30
2019-03-12T04:22:08.103Z,4.08
2019-03-12T04:23:16.083Z,4.87
2019-03-12T04:24:20.138Z,4.40
2019-03-12T04:25:25.335Z,4.33
2019-03-12T04:26:30.558Z,4.08
2019-03-12T04:27:36.066Z,4.70
2019-03-12T04:28:41.245Z,4.83
2019-03-12T04:29:46.426Z,4.40
2019-03-12T04:30:51.733Z,4.65
2019-03-12T04:31:56.946Z,4.10
2019-03-12T04:33:02.257Z,3.95
2019-03-12T04:34:36.767Z,5.35
2019-03-12T04:35:41.901Z,4.12
2019-03-12T04:36:48.226Z,4.60
2019-03-12T04:37:53.700Z,4.75
2019-03-12T04:38:59.051Z,4.95
2019-03-12T04:40:04.518Z,4.60
2019-03-12T04:41:09.894Z,4.78
2019-03-12T04:42:15.375Z,5.55
2019-03-12T04:43:20.509Z,5.33
2019-03-12T04:44:25.571Z,4.65
2019-03-12T04:45:31.084Z,4.72
2019-03-12T04:46:37.089Z,4.20
2019-03-12T04:47:42.313Z,4.62
2019-03-12T04:48:47.429Z,4.70
2019-03-12T04:49:52.733Z,4.92
2019-03-12T04:50:57.796Z,5.40
2019-03-12T04:52:03.524Z,4.62
2019-03-12T04:53:08.596Z,4.22
2019-03-12T04:54:13.799Z,5.95
2019-03-12T04:55:19.109Z,4.78
2019-03-12T04:56:24.565Z,4.03
2019-03-12T04:57:29.702Z,4.30
2019-03-12T04:58:34.934Z,5.22
2019-03-12T04:59:40.240Z,4.95
2019-03-12T05:00:45.486Z,3.60
2019-03-12T05:01:50.555Z,3.42
2019-03-12T05:02:55.872Z,3.30
2019-03-12T05:04:01.040Z,4.35
2019-03-12T05:05:06.992Z,4.80
2019-03-12T05:06:12.184Z,4.17
2019-03-12T05:07:17.476Z,4.80
2019-03-12T05:08:22.752Z,4.03
2019-03-12T05:09:28.164Z,3.70
2019-03-12T05:10:33.398Z,3.37
2019-03-12T05:11:38.736Z,5.08
2019-03-12T05:12:44.017Z,4.85
2019-03-12T05:14:38.155Z,4.47
2019-03-12T05:15:43.381Z,3.80
2019-03-12T05:16:48.660Z,3.75
2019-03-12T05:17:53.885Z,3.70
2019-03-12T05:18:58.969Z,4.12
2019-03-12T05:20:05.339Z,4.03
2019-03-12T05:21:10.497Z,3.80
2019-03-12T05:22:16.732Z,4.20
2019-03-12T05:23:21.913Z,3.92
2019-03-12T05:24:27.056Z,3.62
2019-03-12T05:25:32.476Z,3.27
2019-03-12T05:26:37.907Z,3.47
2019-03-12T05:27:43.720Z,4.17
2019-03-12T05:28:49.027Z,3.80
2019-03-12T05:29:54.481Z,3.45
2019-03-12T05:30:59.603Z,4.78
2019-03-12T05:32:04.782Z,6.03
2019-03-12T05:33:10.181Z,4.00
2019-03-12T05:34:16.657Z,4.22
2019-03-12T05:35:21.759Z,4.45
2019-03-12T05:36:27.193Z,4.03
2019-03-12T05:37:32.246Z,4.30
2019-03-12T05:38:37.674Z,3.85
2019-03-12T05:39:42.745Z,3.75
2019-03-12T05:40:47.922Z,3.72
2019-03-12T05:41:53.589Z,3.75
2019-03-12T05:42:58.761Z,4.03
2019-03-12T05:44:03.953Z,3.35
2019-03-12T05:45:09.512Z,3.85
2019-03-12T05:46:14.720Z,4.58
2019-03-12T05:47:19.754Z,4.08
2019-03-12T05:48:24.861Z,3.42
2019-03-12T05:49:30.133Z,4.30
2019-03-12T05:50:35.402Z,3.80
2019-03-12T05:51:40.382Z,3.35
2019-03-12T05:52:48.779Z,5.28
2019-03-12T05:53:53.048Z,4.12
2019-03-12T05:54:58.402Z,4.00
2019-03-12T05:56:03.654Z,4.22
2019-03-12T05:57:08.863Z,3.50
2019-03-12T05:58:13.955Z,3.25
2019-03-12T05:59:19.573Z,3.45
2019-03-12T06:00:26.201Z,5.12
2019-03-12T06:01:31.350Z,4.90
2019-03-12T06:02:36.440Z,5.40
2019-03-12T06:03:41.586Z,6.33
2019-03-12T06:04:47.104Z,4.50
2019-03-12T06:05:52.405Z,4.00
2019-03-12T06:06:57.613Z,4.35
2019-03-12T06:08:02.684Z,4.67
2019-03-12T06:09:08.050Z,4.90
2019-03-12T06:10:13.569Z,4.55
2019-03-12T06:11:18.736Z,4.08
2019-03-12T06:12:23.960Z,5.30
2019-03-12T06:13:29.161Z,4.75
2019-03-12T06:14:34.637Z,4.70
2019-03-12T06:15:40.043Z,5.10
2019-03-12T06:16:45.545Z,4.87
2019-03-12T06:17:50.934Z,3.70
2019-03-12T06:18:56.141Z,4.55
2019-03-12T06:20:01.372Z,4.17
2019-03-12T06:21:06.832Z,6.08
2019-03-12T06:22:12.370Z,3.65
2019-03-12T06:23:17.668Z,4.78
2019-03-12T06:24:22.894Z,4.92
2019-03-12T06:25:28.230Z,5.33
2019-03-12T06:26:34.077Z,5.62
2019-03-12T06:27:39.388Z,5.15
2019-03-12T06:28:44.688Z,4.50
2019-03-12T06:29:49.817Z,5.50
2019-03-12T06:31:20.088Z,5.33
2019-03-12T06:32:41.364Z,4.60
2019-03-12T06:34:01.841Z,5.28
2019-03-12T06:35:11.035Z,5.12
2019-03-12T06:36:31.301Z,5.22
2019-03-12T06:37:48.002Z,6.47
2019-03-12T06:39:00.584Z,5.10
2019-03-12T06:40:31.202Z,4.47
2019-03-12T06:42:00.030Z,4.83
2019-03-12T06:43:22.766Z,7.10
2019-03-12T06:44:35.383Z,4.72
2019-03-12T06:46:02.401Z,5.55
2019-03-12T06:47:26.727Z,4.25
2019-03-12T06:48:49.736Z,4.00
2019-03-12T06:50:08.321Z,5.80
2019-03-12T06:51:26.441Z,5.30
2019-03-12T06:52:48.645Z,5.53
2019-03-12T06:54:06.228Z,6.17
2019-03-12T06:55:30.470Z,4.53
2019-03-12T06:56:54.767Z,5.53
2019-03-12T06:58:41.097Z,5.40
2019-03-12T07:00:08.259Z,4.53
2019-03-12T07:01:19.300Z,4.60
2019-03-12T07:02:42.393Z,5.40
2019-03-12T07:04:02.332Z,4.80
2019-03-12T07:05:33.292Z,4.83
2019-03-12T07:07:00.735Z,5.00
2019-03-12T07:08:13.455Z,4.70
2019-03-12T07:09:43.571Z,5.10
2019-03-12T07:11:19.676Z,6.90
2019-03-12T07:12:49.639Z,5.75
2019-03-12T07:14:06.291Z,4.45
2019-03-12T07:15:21.897Z,4.67
2019-03-12T07:16:44.820Z,4.90
2019-03-12T07:17:59.062Z,4.67
2019-03-12T07:19:17.921Z,5.25
2019-03-12T07:20:46.631Z,4.60
2019-03-12T07:21:59.654Z,5.58
2019-03-12T07:23:33.305Z,5.17
2019-03-12T07:24:57.883Z,4.75
2019-03-12T07:26:30.775Z,5.83
2019-03-12T07:27:42.239Z,4.85
2019-03-12T07:28:53.937Z,5.85
2019-03-12T07:30:21.515Z,5.00
2019-03-12T07:31:41.716Z,5.53
2019-03-12T07:33:15.017Z,5.03
2019-03-12T07:34:45.245Z,4.40
2019-03-12T07:36:12.537Z,4.60
2019-03-12T07:37:26.305Z,5.00
2019-03-12T07:38:56.897Z,4.50
2019-03-12T07:40:29.431Z,4.60
2019-03-12T07:41:46.350Z,4.00
2019-03-12T07:43:00.737Z,3.40
2019-03-12T07:44:30.550Z,5.17
2019-03-12T07:45:55.097Z,4.30
2019-03-12T07:47:19.450Z,4.20
2019-03-12T07:48:43.518Z,4.50
2019-03-12T07:50:06.139Z,4.92
2019-03-12T07:51:21.594Z,3.27
2019-03-12T07:52:51.699Z,3.80
2019-03-12T07:54:31.690Z,5.22
2019-03-12T07:55:58.597Z,4.62
2019-03-12T07:57:16.453Z,3.55
2019-03-12T07:58:39.284Z,4.12
2019-03-12T08:00:03.377Z,4.72
2019-03-12T08:01:30.739Z,4.90
2019-03-12T08:02:57.087Z,3.58
2019-03-12T08:04:21.492Z,4.87
2019-03-12T08:05:38.399Z,4.00
2019-03-12T08:06:59.551Z,4.85
2019-03-12T08:08:23.280Z,4.80
2019-03-12T08:09:46.310Z,4.70
2019-03-12T08:11:08.763Z,3.90
2019-03-12T08:12:26.969Z,4.92
2019-03-12T08:13:53.937Z,4.35
2019-03-12T08:15:23.406Z,5.28
2019-03-12T08:16:56.181Z,4.90
2019-03-12T08:18:23.050Z,4.67
2019-03-12T08:19:53.334Z,5.15
2019-03-12T08:21:06.428Z,4.45
2019-03-12T08:22:20.915Z,4.53
2019-03-12T08:23:44.595Z,5.10
2019-03-12T08:25:04.516Z,4.17
2019-03-12T08:26:27.626Z,4.25
2019-03-12T08:27:50.047Z,3.65
2019-03-12T08:29:23.368Z,4.55
2019-03-12T08:30:50.554Z,4.10
2019-03-12T08:32:01.476Z,3.30
2019-03-12T08:33:28.419Z,3.80
2019-03-12T08:34:52.409Z,4.62
2019-03-12T08:36:15.467Z,3.65
2019-03-12T08:37:57.884Z,3.77
2019-03-12T08:39:14.671Z,4.17
2019-03-12T08:40:51.716Z,3.80
2019-03-12T08:42:03.522Z,5.10
2019-03-12T08:43:21.450Z,4.25
2019-03-12T08:44:46.423Z,4.10
2019-03-12T08:46:22.256Z,4.40
2019-03-12T08:47:38.807Z,4.25
2019-03-12T08:49:06.097Z,3.87
2019-03-12T08:50:30.265Z,4.20
2019-03-12T08:51:42.015Z,3.25
2019-03-12T08:53:18.675Z,4.25
2019-03-12T08:54:55.288Z,3.85
2019-03-12T08:56:11.050Z,3.85
2019-03-12T08:57:37.784Z,4.85
2019-03-12T08:58:53.122Z,4.17
2019-03-12T09:00:11.292Z,3.30
2019-03-12T09:01:22.214Z,3.35
2019-03-12T09:02:55.320Z,3.67
2019-03-12T09:04:23.644Z,3.35
2019-03-12T09:05:40.819Z,3.75
2019-03-12T09:06:54.855Z,3.70
2019-03-12T09:08:22.253Z,3.55
2019-03-12T09:09:35.466Z,4.17
2019-03-12T09:10:53.458Z,3.75
2019-03-12T09:12:19.109Z,5.67
2019-03-12T09:13:31.847Z,3.35
2019-03-12T09:14:49.711Z,3.45
2019-03-12T09:16:16.510Z,3.92
2019-03-12T09:17:46.653Z,4.03
2019-03-12T09:19:10.747Z,3.08
2019-03-12T09:20:38.012Z,4.08
2019-03-12T09:21:54.902Z,3.10
2019-03-12T09:23:15.888Z,3.50
2019-03-12T09:24:38.728Z,3.42
2019-03-12T09:25:52.701Z,4.22
2019-03-12T09:27:29.017Z,2.80
2019-03-12T09:28:56.161Z,2.37
2019-03-12T09:30:17.621Z,3.83
2019-03-12T09:31:54.322Z,3.22
2019-03-12T09:33:18.851Z,3.92
2019-03-12T09:34:46.119Z,2.72
2019-03-12T09:35:59.833Z,3.72
2019-03-12T09:37:17.072Z,3.15
2019-03-12T09:38:35.704Z,3.65
2019-03-12T09:39:47.122Z,3.67
2019-03-12T09:41:13.695Z,3.25
2019-03-12T09:42:36.222Z,2.70
2019-03-12T09:44:10.369Z,4.65
2019-03-12T09:45:45.588Z,2.95
2019-03-12T09:47:00.358Z,3.90
2019-03-12T09:48:12.223Z,3.35
2019-03-12T09:49:38.022Z,3.47
2019-03-12T09:51:01.052Z,4.15
2019-03-12T09:52:11.617Z,3.40
2019-03-12T09:53:31.766Z,3.85
2019-03-12T09:54:54.437Z,3.17
2019-03-12T09:56:18.832Z,4.00
2019-03-12T09:57:43.884Z,3.90
2019-03-12T09:59:02.111Z,2.80
2019-03-12T10:00:39.243Z,2.80
2019-03-12T10:02:03.130Z,4.17
2019-03-12T10:03:39.265Z,3.10
2019-03-12T10:05:02.167Z,2.60
2019-03-12T10:06:19.026Z,2.50
2019-03-12T10:07:43.244Z,2.70
2019-03-12T10:09:16.393Z,2.80
2019-03-12T10:10:31.956Z,2.30
2019-03-12T10:11:56.133Z,3.25
2019-03-12T10:13:32.208Z,3.15
2019-03-12T10:15:08.045Z,3.15
2019-03-12T10:16:32.275Z,3.08
2019-03-12T10:17:53.552Z,2.92
2019-03-12T10:19:13.156Z,2.95
2019-03-12T10:20:43.045Z,2.98
2019-03-12T10:22:07.492Z,3.30
2019-03-12T10:23:34.714Z,2.95
2019-03-12T10:25:05.132Z,3.22
2019-03-12T10:26:26.113Z,3.87
2019-03-12T10:27:47.466Z,3.30
2019-03-12T10:29:23.615Z,2.80
2019-03-12T10:30:43.556Z,3.25
2019-03-12T10:32:06.364Z,3.92
2019-03-12T10:33:19.217Z,3.95
2019-03-12T10:34:47.043Z,3.08
2019-03-12T10:36:00.533Z,3.55
2019-03-12T10:37:23.466Z,3.05
2019-03-12T10:39:09.310Z,4.25
2019-03-12T10:40:45.821Z,2.80
2019-03-12T10:42:02.539Z,3.00
2019-03-12T10:43:30.771Z,3.00
2019-03-12T10:45:01.350Z,3.83
2019-03-12T10:46:23.919Z,3.12
2019-03-12T10:47:29.703Z,2.85
2019-03-12T10:48:35.255Z,3.27
2019-03-12T10:49:40.513Z,2.85
2019-03-12T10:50:45.635Z,2.30
2019-03-12T10:51:51.487Z,2.52
2019-03-12T10:52:57.121Z,3.15
2019-03-12T10:54:02.292Z,3.00
2019-03-12T10:55:13.416Z,3.12
2019-03-12T10:56:15.418Z,2.90
2019-03-12T10:57:21.715Z,2.98
2019-03-12T10:58:27.028Z,4.50
2019-03-12T10:59:35.482Z,3.47
2019-03-12T11:00:40.780Z,3.65
2019-03-12T11:01:45.956Z,3.00
2019-03-12T11:02:51.408Z,4.65
2019-03-12T11:03:56.932Z,2.40
2019-03-12T11:05:02.037Z,3.17
2019-03-12T11:06:07.192Z,2.92
2019-03-12T11:07:16.662Z,3.10
2019-03-12T11:08:19.319Z,3.10
2019-03-12T11:09:24.734Z,2.42
2019-03-12T11:10:30.118Z,3.10
2019-03-12T11:11:35.742Z,4.47
2019-03-12T11:12:40.767Z,3.02
2019-03-12T11:13:45.855Z,3.00
2019-03-12T11:14:51.283Z,3.20
2019-03-12T11:15:56.799Z,3.55
2019-03-12T11:17:01.905Z,3.42
2019-03-12T11:18:07.167Z,3.37
2019-03-12T11:19:12.388Z,3.30
2019-03-12T11:20:17.761Z,3.02
2019-03-12T11:21:22.816Z,3.42
2019-03-12T11:22:27.960Z,3.58
2019-03-12T11:23:33.816Z,2.98
2019-03-12T11:24:38.829Z,3.08
2019-03-12T11:25:43.875Z,4.12
2019-03-12T11:26:49.144Z,3.30
2019-03-12T11:27:54.426Z,2.70
2019-03-12T11:28:59.984Z,3.92
2019-03-12T11:30:05.526Z,2.62
2019-03-12T11:31:10.697Z,4.08
2019-03-12T11:32:16.110Z,2.58
2019-03-12T11:33:21.513Z,3.17
2019-03-12T11:34:26.532Z,3.05
2019-03-12T11:35:39.431Z,3.05
2019-03-12T11:36:39.154Z,2.70
2019-03-12T11:37:44.408Z,2.02
2019-03-12T11:38:49.613Z,2.90
2019-03-12T11:39:55.385Z,2.87
2019-03-12T11:41:00.729Z,3.35
2019-03-12T11:42:05.839Z,3.00
2019-03-12T11:43:10.943Z,3.42
2019-03-12T11:44:16.401Z,3.10
2019-03-12T11:45:34.789Z,2.85
2019-03-12T11:46:29.148Z,4.50
2019-03-12T11:47:34.407Z,2.90
2019-03-12T11:48:40.251Z,2.98
2019-03-12T11:49:45.889Z,2.37
2019-03-12T11:50:51.307Z,2.70
2019-03-12T11:51:56.925Z,2.52
2019-03-12T11:53:02.348Z,3.83
2019-03-12T11:54:08.262Z,3.72
2019-03-12T11:55:14.835Z,2.70
2019-03-12T11:56:20.218Z,2.87
2019-03-12T11:57:25.852Z,3.40
2019-03-12T11:58:31.186Z,3.10
2019-03-12T11:59:36.449Z,2.98
2019-03-12T12:00:51.950Z,2.87
2019-03-12T12:01:57.070Z,3.02
2019-03-12T12:03:02.300Z,3.47
2019-03-12T12:04:07.464Z,2.30
2019-03-12T12:05:12.625Z,2.35
2019-03-12T12:06:17.874Z,2.25
2019-03-12T12:07:23.006Z,2.42
2019-03-12T12:08:28.261Z,3.10
2019-03-12T12:09:34.064Z,2.50
2019-03-12T12:10:39.395Z,2.90
2019-03-12T12:11:44.972Z,2.10
2019-03-12T12:12:50.193Z,3.10
2019-03-12T12:13:55.323Z,2.90
2019-03-12T12:15:01.111Z,2.80
2019-03-12T12:16:06.414Z,3.20
2019-03-12T12:17:11.590Z,3.17
2019-03-12T12:18:16.912Z,2.83
2019-03-12T12:19:22.539Z,2.33
2019-03-12T12:20:30.178Z,2.87
2019-03-12T12:21:34.967Z,3.77
2019-03-12T12:22:40.291Z,3.20
2019-03-12T12:23:45.663Z,2.85
2019-03-12T12:24:51.273Z,4.25
2019-03-12T12:25:56.695Z,2.67
2019-03-12T12:27:02.065Z,2.92
2019-03-12T12:28:07.360Z,2.80
2019-03-12T12:29:13.073Z,1.82
2019-03-12T12:30:21.386Z,2.90
2019-03-12T12:31:25.838Z,2.75
2019-03-12T12:32:35.523Z,2.37
2019-03-12T12:33:41.120Z,2.15
2019-03-12T12:34:46.543Z,2.75
2019-03-12T12:35:52.429Z,3.12
2019-03-12T12:36:59.045Z,2.85
2019-03-12T12:38:04.894Z,2.55
2019-03-12T12:39:10.317Z,3.50
2019-03-12T12:40:16.506Z,2.60
2019-03-12T12:41:25.121Z,2.65
2019-03-12T12:42:30.394Z,3.00
2019-03-12T12:43:36.152Z,2.33
2019-03-12T12:44:41.384Z,2.55
2019-03-12T12:45:47.021Z,2.80
2019-03-12T12:46:52.423Z,2.95
2019-03-12T12:47:57.769Z,3.15
2019-03-12T12:49:03.247Z,3.22
2019-03-12T12:50:09.066Z,2.65
2019-03-12T12:51:14.460Z,2.27
2019-03-12T12:52:20.210Z,2.40
2019-03-12T12:53:25.566Z,2.70
2019-03-12T12:54:31.048Z,2.90
2019-03-12T12:55:36.679Z,3.10
2019-03-12T12:56:42.266Z,2.70
2019-03-12T12:57:47.475Z,3.00
2019-03-12T12:58:52.792Z,2.58
2019-03-12T12:59:58.684Z,2.50
2019-03-12T13:01:04.154Z,2.27
2019-03-12T13:02:09.662Z,2.00
2019-03-12T13:03:15.166Z,2.65
2019-03-12T13:04:20.596Z,2.37
2019-03-12T13:05:26.298Z,2.70
2019-03-12T13:06:31.598Z,2.25
2019-03-12T13:07:36.959Z,2.58
2019-03-12T13:08:42.847Z,3.05
2019-03-12T13:09:47.945Z,2.40
2019-03-12T13:10:53.105Z,2.00
2019-03-12T13:11:58.478Z,2.58
2019-03-12T13:13:03.709Z,3.42
2019-03-12T13:14:08.893Z,2.35
2019-03-12T13:15:14.229Z,2.30
2019-03-12T13:16:25.131Z,2.92
2019-03-12T13:17:26.686Z,2.37
2019-03-12T13:18:31.787Z,2.00
2019-03-12T13:19:37.153Z,2.17
2019-03-12T13:20:42.431Z,2.75
2019-03-12T13:21:47.934Z,2.22
2019-03-12T13:22:53.167Z,2.25
2019-03-12T13:23:58.651Z,2.55
2019-03-12T13:25:04.010Z,2.37
2019-03-12T13:26:09.140Z,3.00
2019-03-12T13:27:14.152Z,3.20
2019-03-12T13:28:19.313Z,2.35
2019-03-12T13:29:24.303Z,2.90
2019-03-12T13:30:29.884Z,2.60
2019-03-12T13:31:35.614Z,4.97
2019-03-12T13:32:41.467Z,2.08
2019-03-12T13:33:46.685Z,2.70
2019-03-12T13:34:52.062Z,2.62
2019-03-12T13:35:57.466Z,2.40
2019-03-12T13:37:02.927Z,2.75
2019-03-12T13:38:08.121Z,2.30
2019-03-12T13:39:13.368Z,2.50
2019-03-12T13:40:18.886Z,2.50
2019-03-12T13:41:24.228Z,2.62
2019-03-12T13:42:29.460Z,3.08
2019-03-12T13:43:35.033Z,2.95
2019-03-12T13:44:43.841Z,3.62
2019-03-12T13:45:49.478Z,2.85
2019-03-12T13:46:55.235Z,2.60
2019-03-12T13:48:00.918Z,2.80
2019-03-12T13:49:07.035Z,3.80
2019-03-12T13:50:12.353Z,2.83
2019-03-12T13:51:17.650Z,2.87
2019-03-12T13:52:23.176Z,3.52
2019-03-12T13:53:29.274Z,3.47
2019-03-12T13:54:34.616Z,2.47
2019-03-12T13:55:40.262Z,2.60
2019-03-12T13:56:45.715Z,2.85
2019-03-12T13:57:50.898Z,2.70
2019-03-12T13:58:56.681Z,2.42
2019-03-12T14:00:02.421Z,2.62
2019-03-12T14:01:07.948Z,3.60
2019-03-12T14:02:13.440Z,2.10
2019-03-12T14:03:18.706Z,3.37
2019-03-12T14:04:24.032Z,3.20
2019-03-12T14:05:29.322Z,2.95
2019-03-12T14:06:37.431Z,3.00
2019-03-12T14:07:41.829Z,2.62
2019-03-12T14:08:46.849Z,3.20
2019-03-12T14:09:51.928Z,2.65
2019-03-12T14:10:57.333Z,2.35
2019-03-12T14:12:02.843Z,2.60
2019-03-12T14:13:08.767Z,2.62
2019-03-12T14:14:14.277Z,3.37
2019-03-12T14:15:22.452Z,2.75
2019-03-12T14:16:27.553Z,2.55
2019-03-12T14:17:32.657Z,2.95
2019-03-12T14:18:37.916Z,2.25
2019-03-12T14:19:43.116Z,2.12
2019-03-12T14:20:53.770Z,2.35
2019-03-12T14:21:59.461Z,3.12
2019-03-12T14:23:04.999Z,2.85
2019-03-12T14:24:10.054Z,3.10
2019-03-12T14:25:15.124Z,3.05
2019-03-12T14:26:20.317Z,2.42
2019-03-12T14:27:25.583Z,2.65
2019-03-12T14:28:31.070Z,2.65
2019-03-12T14:29:36.131Z,2.85
2019-03-12T14:30:41.564Z,2.60
2019-03-12T14:31:47.054Z,3.55
2019-03-12T14:32:52.325Z,2.55
2019-03-12T14:33:57.583Z,2.52
2019-03-12T14:35:02.995Z,2.60
2019-03-12T14:36:08.301Z,2.40
2019-03-12T14:37:13.665Z,2.75
2019-03-12T14:38:19.383Z,2.20
2019-03-12T14:39:25.000Z,2.10
2019-03-12T14:40:30.562Z,1.92
2019-03-12T14:41:35.864Z,2.22
2019-03-12T14:42:40.936Z,3.08
2019-03-12T14:43:46.311Z,2.37
2019-03-12T14:44:51.660Z,1.82
2019-03-12T14:45:56.721Z,2.15
2019-03-12T14:47:02.401Z,2.00
2019-03-12T14:48:10.178Z,2.08
2019-03-12T14:49:15.337Z,1.60
2019-03-12T14:50:20.843Z,2.10
2019-03-12T14:51:32.254Z,2.15
2019-03-12T14:52:41.235Z,2.85
2019-03-12T14:53:47.095Z,2.40
2019-03-12T14:54:52.788Z,2.37
2019-03-12T14:55:58.471Z,3.30
2019-03-12T14:57:04.207Z,2.20
2019-03-12T14:58:10.275Z,2.70
2019-03-12T14:59:15.784Z,2.27
2019-03-12T15:00:22.159Z,2.98
2019-03-12T15:01:27.545Z,2.50
2019-03-12T15:02:35.128Z,2.85
2019-03-12T15:03:43.446Z,2.00
2019-03-12T15:04:49.028Z,2.95
2019-03-12T15:05:54.837Z,4.15
2019-03-12T15:07:00.256Z,2.80
2019-03-12T15:08:10.250Z,2.45
2019-03-12T15:09:16.233Z,2.72
2019-03-12T15:10:21.441Z,3.15
2019-03-12T15:11:27.368Z,2.85
2019-03-12T15:12:32.702Z,3.70
2019-03-12T15:13:37.845Z,2.40
2019-03-12T15:14:43.229Z,2.55
2019-03-12T15:15:48.356Z,2.90
2019-03-12T15:17:00.643Z,3.55
2019-03-12T15:18:06.151Z,2.60
2019-03-12T15:19:11.405Z,3.35
2019-03-12T15:20:16.733Z,2.65
2019-03-12T15:21:21.864Z,2.37
2019-03-12T15:22:26.893Z,2.55
2019-03-12T15:23:32.401Z,3.20
2019-03-12T15:24:37.924Z,2.58
2019-03-12T15:25:43.104Z,2.40
2019-03-12T15:26:48.373Z,3.27
2019-03-12T15:27:53.635Z,2.20
2019-03-12T15:28:59.578Z,2.42
2019-03-12T15:30:07.279Z,3.25